createdAt,value
2019-04-29T00:02:29.485Z,4.42
2019-04-29T00:04:59.845Z,4.20
2019-04-29T00:07:30.453Z,4.83
2019-04-29T00:10:00.974Z,4.83
2019-04-29T00:12:32.103Z,5.35
2019-04-29T00:15:09.915Z,5.47
2019-04-29T00:17:47.888Z,5.30
2019-04-29T00:20:34.730Z,4.90
2019-04-29T00:23:05.178Z,5.20
2019-04-29T00:25:35.536Z,4.83
2019-04-29T00:28:05.910Z,4.97
2019-04-29T00:30:36.275Z,5.72
2019-04-29T00:33:06.653Z,6.95
2019-04-29T00:35:37.611Z,6.00
2019-04-29T00:38:09.787Z,6.28
2019-04-29T00:40:50.828Z,5.45
2019-04-29T00:43:39.088Z,6.15
2019-04-29T00:46:11.213Z,6.55
2019-04-29T00:48:41.768Z,6.72
2019-04-29T00:51:12.286Z,6.00
2019-04-29T00:53:43.334Z,7.03
2019-04-29T00:56:13.690Z,7.50
2019-04-29T00:58:44.078Z,7.62
2019-04-29T01:01:16.073Z,7.28
2019-04-29T01:03:47.414Z,6.90
2019-04-29T01:06:17.767Z,7.37
2019-04-29T01:08:48.213Z,7.12
2019-04-29T01:11:18.640Z,7.50
2019-04-29T01:13:49.018Z,7.10
2019-04-29T01:16:19.378Z,7.30
2019-04-29T01:18:49.820Z,7.45
2019-04-29T01:21:20.204Z,6.60
2019-04-29T01:23:50.594Z,6.97
2019-04-29T01:26:22.583Z,6.90
2019-04-29T01:28:54.606Z,7.58
2019-04-29T01:31:26.608Z,7.62
2019-04-29T01:33:58.631Z,7.80
2019-04-29T01:36:33.167Z,8.18
2019-04-29T01:39:05.866Z,7.92
2019-04-29T01:41:44.046Z,7.85
2019-04-29T01:44:16.081Z,9.13
2019-04-29T01:47:05.776Z,9.03
2019-04-29T01:49:36.167Z,9.05
2019-04-29T01:52:06.524Z,8.88
2019-04-29T01:54:36.993Z,9.35
2019-04-29T01:57:07.358Z,9.55
2019-04-29T01:59:37.754Z,9.18
2019-04-29T02:02:08.668Z,10.18
2019-04-29T02:04:39.066Z,9.68
2019-04-29T02:07:09.426Z,10.15
2019-04-29T02:09:47.413Z,10.32
2019-04-29T02:12:17.777Z,9.98
2019-04-29T02:14:48.160Z,10.45
2019-04-29T02:17:18.523Z,11.03
2019-04-29T02:19:50.980Z,11.68
2019-04-29T02:22:29.777Z,11.25
2019-04-29T02:25:02.893Z,11.68
2019-04-29T02:27:33.925Z,11.80
2019-04-29T02:30:08.886Z,12.18
2019-04-29T02:32:39.995Z,13.90
2019-04-29T02:35:13.100Z,11.38
2019-04-29T02:37:45.297Z,12.47
2019-04-29T02:40:36.892Z,12.45
2019-04-29T02:43:15.671Z,12.82
2019-04-29T02:45:48.910Z,13.50
2019-04-29T02:48:20.548Z,12.75
2019-04-29T02:50:54.463Z,13.65
2019-04-29T02:53:26.206Z,14.03
2019-04-29T02:56:00.851Z,14.38
2019-04-29T02:58:34.027Z,14.65
2019-04-29T03:31:26.273Z,17.85
2019-04-29T04:13:00.436Z,20.50
2019-04-29T04:15:30.795Z,19.40
2019-04-29T04:18:08.807Z,20.92
2019-04-29T04:20:39.297Z,20.72
2019-04-29T04:23:10.210Z,21.37
2019-04-29T04:25:40.643Z,21.68
2019-04-29T04:28:11.032Z,21.20
2019-04-29T04:30:41.407Z,21.62
2019-04-29T04:33:11.798Z,21.50
2019-04-29T04:35:42.160Z,21.73
2019-04-29T04:38:12.603Z,20.48
2019-04-29T04:40:47.401Z,21.42
2019-04-29T04:43:17.786Z,21.10
2019-04-29T04:45:48.159Z,21.52
2019-04-29T04:48:18.534Z,22.25
2019-04-29T04:50:48.892Z,21.15
2019-04-29T04:53:19.299Z,20.00
2019-04-29T04:55:51.310Z,21.17
2019-04-29T04:58:22.081Z,21.23
2019-04-29T05:00:52.550Z,20.88
2019-04-29T05:03:22.942Z,21.10
2019-04-29T05:05:53.310Z,22.15
2019-04-29T05:08:23.761Z,20.57
2019-04-29T05:10:54.124Z,20.23
2019-04-29T05:13:28.448Z,20.97
2019-04-29T05:15:56.690Z,19.70
2019-04-29T05:18:27.096Z,20.48
2019-04-29T05:20:57.475Z,21.23
2019-04-29T05:23:27.835Z,19.80
2019-04-29T05:25:58.227Z,19.67
2019-04-29T05:28:28.587Z,19.67
2019-04-29T05:30:58.971Z,21.12
2019-04-29T05:33:29.425Z,19.48
2019-04-29T05:36:16.789Z,19.17
2019-04-29T05:38:48.800Z,20.10
2019-04-29T05:41:19.545Z,20.90
2019-04-29T05:44:06.786Z,20.62
2019-04-29T05:46:44.829Z,21.15
2019-04-29T05:49:16.852Z,20.00
2019-04-29T05:51:57.461Z,21.07
2019-04-29T05:54:31.777Z,19.32
2019-04-29T05:56:59.801Z,19.80
2019-04-29T05:59:30.226Z,19.37
2019-04-29T06:02:00.581Z,19.82
2019-04-29T06:04:30.979Z,19.67
2019-04-29T06:07:01.342Z,21.40
2019-04-29T06:09:31.706Z,21.30
2019-04-29T06:12:02.102Z,21.25
2019-04-29T06:14:32.467Z,20.95
2019-04-29T06:17:07.513Z,20.97
2019-04-29T06:19:38.874Z,22.15
2019-04-29T06:22:07.015Z,20.10
2019-04-29T06:24:41.172Z,21.87
2019-04-29T06:27:09.471Z,20.02
2019-04-29T06:29:39.833Z,21.37
2019-04-29T06:32:10.288Z,22.42
2019-04-29T06:34:45.936Z,20.68
2019-04-29T06:37:16.315Z,21.70
2019-04-29T06:39:46.928Z,21.60
2019-04-29T06:42:19.628Z,21.68
2019-04-29T06:44:50.754Z,20.02
2019-04-29T06:47:21.168Z,19.45
2019-04-29T06:49:51.529Z,21.05
2019-04-29T06:52:21.926Z,20.17
2019-04-29T06:54:52.289Z,20.43
2019-04-29T06:57:22.683Z,20.82
2019-04-29T06:59:56.526Z,18.87
2019-04-29T07:02:29.112Z,19.65
2019-04-29T07:05:12.909Z,17.70
2019-04-29T07:18:59.731Z,15.13
2019-04-29T07:49:33.028Z,14.30
2019-04-29T07:52:03.416Z,12.88
2019-04-29T07:54:33.786Z,12.45
2019-04-29T07:57:04.179Z,13.32
2019-04-29T07:59:38.305Z,12.15
2019-04-29T08:02:06.650Z,13.03
2019-04-29T08:04:37.038Z,13.20
2019-04-29T08:07:07.424Z,13.22
2019-04-29T08:09:39.966Z,12.88
2019-04-29T08:12:12.751Z,13.88
2019-04-29T08:14:44.703Z,12.23
2019-04-29T08:17:16.269Z,12.23
2019-04-29T08:19:46.724Z,11.80
2019-04-29T08:22:18.324Z,12.95
2019-04-29T08:24:52.203Z,12.55
2019-04-29T08:27:22.713Z,13.20
2019-04-29T08:29:53.155Z,14.03
2019-04-29T08:32:23.551Z,14.78
2019-04-29T08:34:58.305Z,15.13
2019-04-29T08:37:25.998Z,15.23
2019-04-29T08:40:14.910Z,16.20
2019-04-29T08:42:37.251Z,16.42
2019-04-29T08:45:11.334Z,17.92
2019-04-29T08:47:52.339Z,18.30
2019-04-29T08:50:22.737Z,18.35
2019-04-29T08:52:53.502Z,18.80
2019-04-29T08:55:26.568Z,19.37
2019-04-29T08:57:55.981Z,19.15
2019-04-29T09:00:32.703Z,18.75
2019-04-29T09:06:05.152Z,20.55
2019-04-29T09:31:15.051Z,14.68
2019-04-29T09:33:49.054Z,14.53
2019-04-29T09:36:17.525Z,14.38
2019-04-29T09:38:47.894Z,14.33
2019-04-29T09:41:22.579Z,15.40
2019-04-29T09:43:54.590Z,16.48
2019-04-29T09:46:29.944Z,16.27
2019-04-29T09:48:58.717Z,16.45
2019-04-29T09:51:29.754Z,16.42
2019-04-29T09:54:00.256Z,16.05
2019-04-29T09:56:30.658Z,15.75
2019-04-29T09:59:19.018Z,16.27
2019-04-29T10:07:20.710Z,15.72
2019-04-29T10:42:29.753Z,18.90
2019-04-29T10:48:03.889Z,18.37
2019-04-29T10:50:37.675Z,18.50
2019-04-29T10:53:23.548Z,19.25
2019-04-29T10:55:54.907Z,18.82
2019-04-29T10:58:35.500Z,19.50
2019-04-29T11:01:21.955Z,18.37
2019-04-29T11:21:11.482Z,15.18
2019-04-29T11:23:44.304Z,16.20
2019-04-29T11:26:23.437Z,15.98
2019-04-29T11:29:09.447Z,15.08
2019-04-29T11:31:49.033Z,15.75
2019-04-29T11:34:33.445Z,14.87
2019-04-29T11:37:13.827Z,14.47
2019-04-29T11:42:41.839Z,14.55
2019-04-29T11:48:03.388Z,14.13
2019-04-29T12:04:42.142Z,13.83
2019-04-29T12:07:32.624Z,14.05
2019-04-29T12:16:35.508Z,14.23
2019-04-29T12:30:43.168Z,13.85
2019-04-29T12:33:27.062Z,13.95
2019-04-29T12:38:49.650Z,13.75
2019-04-29T12:41:49.255Z,12.40
2019-04-29T12:47:08.566Z,12.10
2019-04-29T12:58:14.064Z,11.93
2019-04-29T13:41:30.162Z,11.57
2019-04-29T13:44:05.686Z,11.45
2019-04-29T13:46:53.922Z,11.63
2019-04-29T13:49:34.384Z,12.18
2019-04-29T13:52:07.551Z,11.55
2019-04-29T13:54:42.385Z,12.25
2019-04-29T13:57:16.105Z,11.60
2019-04-29T14:00:08.347Z,11.55
2019-04-29T14:56:15.950Z,10.80
2019-04-29T14:58:47.398Z,11.70
2019-04-29T15:01:23.741Z,11.73
2019-04-29T18:33:40.194Z,3.22
2019-04-29T18:36:19.556Z,3.10
2019-04-29T18:38:47.466Z,3.47
2019-04-29T18:41:24.407Z,3.17
2019-04-29T18:43:46.870Z,3.72
2019-04-29T18:46:17.292Z,2.95
2019-04-29T18:48:47.695Z,2.98
2019-04-29T18:51:20.910Z,3.20
2019-04-29T18:53:50.235Z,4.08
2019-04-29T18:56:20.614Z,3.10
2019-04-29T18:58:51.280Z,2.92
2019-04-29T19:01:23.949Z,3.45
2019-04-29T19:04:04.817Z,2.60
2019-04-29T19:06:33.437Z,3.10
2019-04-29T19:09:12.040Z,3.42
2019-04-29T19:11:38.349Z,3.85
2019-04-29T19:14:08.793Z,3.40
2019-04-29T19:16:39.551Z,3.12
2019-04-29T19:19:09.918Z,3.47
2019-04-29T19:21:52.880Z,3.55
2019-04-29T19:24:23.304Z,3.50
2019-04-29T19:27:00.364Z,3.10
2019-04-29T19:29:25.902Z,3.17
2019-04-29T19:31:56.265Z,3.77
2019-04-29T19:34:39.639Z,3.47
2019-04-29T19:36:59.798Z,3.58
2019-04-29T19:39:30.214Z,3.52
2019-04-29T19:42:01.267Z,3.45
2019-04-29T19:44:33.568Z,3.62
2019-04-29T19:47:04.326Z,3.00
2019-04-29T19:49:35.987Z,3.42
2019-04-29T19:52:06.424Z,3.55
2019-04-29T19:54:36.805Z,3.52
2019-04-29T19:57:07.719Z,3.15
2019-04-29T19:59:38.982Z,3.25
2019-04-29T20:02:10.716Z,3.10
2019-04-29T20:04:46.239Z,3.30
2019-04-29T20:07:17.725Z,3.95
2019-04-29T20:09:49.597Z,3.52
2019-04-29T20:12:21.198Z,3.47
2019-04-29T20:14:58.801Z,3.22
2019-04-29T20:17:47.090Z,3.20
2019-04-29T20:20:22.470Z,3.70
2019-04-29T20:22:53.163Z,3.87
2019-04-29T20:25:30.906Z,3.37
2019-04-29T20:28:05.626Z,3.02
2019-04-29T20:30:28.349Z,3.10
2019-04-29T20:33:01.170Z,3.42
2019-04-29T20:35:31.037Z,3.52
2019-04-29T20:38:01.601Z,3.50
2019-04-29T20:40:37.915Z,3.85
2019-04-29T20:43:07.877Z,3.20
2019-04-29T20:45:36.400Z,4.05
2019-04-29T20:48:10.995Z,3.95
2019-04-29T20:50:40.997Z,4.12
2019-04-29T20:53:30.911Z,3.60
2019-04-29T20:56:09.580Z,3.92
2019-04-29T20:58:33.198Z,3.72
2019-04-29T21:01:10.880Z,4.28
2019-04-29T21:03:58.429Z,4.92
2019-04-29T23:40:17.688Z,4.42
2019-04-29T23:42:49.254Z,5.28
2019-04-29T23:50:45.378Z,5.37
2019-04-29T23:56:42.559Z,4.45
